sensor_id;sensor_type;location;lat;lon;timestamp;temperature;humidity
26537;DHT22;14204;51.262;5.488;2023-11-21T00:02:04;10.30;99.90
26537;DHT22;14204;51.262;5.488;2023-11-21T00:04:30;10.30;99.90
26537;DHT22;14204;51.262;5.488;2023-11-21T00:06:56;10.30;99.90
26537;DHT22;14204;51.262;5.488;2023-11-21T00:09:21;10.30;99.90
26537;DHT22;14204;51.262;5.488;2023-11-21T00:11:47;10.30;99.90
26537;DHT22;14204;51.262;5.488;2023-11-21T00:14:13;10.30;99.90
26537;DHT22;14204;51.262;5.488;2023-11-21T00:16:41;10.40;99.90
26537;DHT22;14204;51.262;5.488;2023-11-21T00:19:07;10.40;99.90
26537;DHT22;14204;51.262;5.488;2023-11-21T00:21:32;10.40;99.90
26537;DHT22;14204;51.262;5.488;2023-11-21T00:23:58;10.40;99.90
26537;DHT22;14204;51.262;5.488;2023-11-21T00:26:24;10.40;99.90
26537;DHT22;14204;51.262;5.488;2023-11-21T00:28:50;10.40;99.90
26537;DHT22;14204;51.262;5.488;2023-11-21T00:31:16;10.40;99.90
26537;DHT22;14204;51.262;5.488;2023-11-21T00:33:42;10.30;99.90
26537;DHT22;14204;51.262;5.488;2023-11-21T00:36:09;10.40;99.90
26537;DHT22;14204;51.262;5.488;2023-11-21T00:38:35;10.40;99.90
26537;DHT22;14204;51.262;5.488;2023-11-21T00:41:01;10.40;99.90
26537;DHT22;14204;51.262;5.488;2023-11-21T00:43:28;10.40;99.90
26537;DHT22;14204;51.262;5.488;2023-11-21T00:45:54;10.40;99.90
26537;DHT22;14204;51.262;5.488;2023-11-21T00:48:19;10.40;99.90
26537;DHT22;14204;51.262;5.488;2023-11-21T00:50:45;10.40;99.90
26537;DHT22;14204;51.262;5.488;2023-11-21T00:53:11;10.40;99.90
26537;DHT22;14204;51.262;5.488;2023-11-21T00:55:38;10.40;99.90
26537;DHT22;14204;51.262;5.488;2023-11-21T00:58:06;10.40;99.90
26537;DHT22;14204;51.262;5.488;2023-11-21T01:00:33;10.40;99.90
26537;DHT22;14204;51.262;5.488;2023-11-21T01:02:59;10.40;99.90
26537;DHT22;14204;51.262;5.488;2023-11-21T01:05:25;10.40;99.90
26537;DHT22;14204;51.262;5.488;2023-11-21T01:07:50;10.40;99.90
26537;DHT22;14204;51.262;5.488;2023-11-21T01:10:16;10.30;99.90
26537;DHT22;14204;51.262;5.488;2023-11-21T01:12:43;10.30;99.90
26537;DHT22;14204;51.262;5.488;2023-11-21T01:15:08;10.40;99.90
26537;DHT22;14204;51.262;5.488;2023-11-21T01:17:34;10.40;99.90
26537;DHT22;14204;51.262;5.488;2023-11-21T01:20:01;10.40;99.90
26537;DHT22;14204;51.262;5.488;2023-11-21T01:22:28;10.40;99.90
26537;DHT22;14204;51.262;5.488;2023-11-21T01:24:54;10.40;99.90
26537;DHT22;14204;51.262;5.488;2023-11-21T01:27:20;10.40;99.90
26537;DHT22;14204;51.262;5.488;2023-11-21T01:29:46;10.40;99.90
26537;DHT22;14204;51.262;5.488;2023-11-21T01:32:11;10.30;99.90
26537;DHT22;14204;51.262;5.488;2023-11-21T01:34:37;10.30;99.90
26537;DHT22;14204;51.262;5.488;2023-11-21T01:37:03;10.30;99.90
26537;DHT22;14204;51.262;5.488;2023-11-21T01:39:31;10.30;99.90
26537;DHT22;14204;51.262;5.488;2023-11-21T01:41:57;10.30;99.90
26537;DHT22;14204;51.262;5.488;2023-11-21T01:44:25;10.30;99.90
26537;DHT22;14204;51.262;5.488;2023-11-21T01:46:51;10.30;99.90
26537;DHT22;14204;51.262;5.488;2023-11-21T01:49:18;10.30;99.90
26537;DHT22;14204;51.262;5.488;2023-11-21T01:51:48;10.30;99.90
26537;DHT22;14204;51.262;5.488;2023-11-21T01:54:16;10.30;99.90
26537;DHT22;14204;51.262;5.488;2023-11-21T01:56:44;10.30;99.90
26537;DHT22;14204;51.262;5.488;2023-11-21T01:59:12;10.30;99.90
26537;DHT22;14204;51.262;5.488;2023-11-21T02:01:39;10.30;99.90
26537;DHT22;14204;51.262;5.488;2023-11-21T02:04:06;10.30;99.90
26537;DHT22;14204;51.262;5.488;2023-11-21T02:06:33;10.30;99.90
26537;DHT22;14204;51.262;5.488;2023-11-21T02:08:59;10.20;99.90
26537;DHT22;14204;51.262;5.488;2023-11-21T02:11:25;10.20;99.90
26537;DHT22;14204;51.262;5.488;2023-11-21T02:13:53;10.20;99.90
26537;DHT22;14204;51.262;5.488;2023-11-21T02:16:19;10.20;99.90
26537;DHT22;14204;51.262;5.488;2023-11-21T02:18:47;10.20;99.90
26537;DHT22;14204;51.262;5.488;2023-11-21T02:21:14;10.20;99.90
26537;DHT22;14204;51.262;5.488;2023-11-21T02:23:40;10.20;99.90
26537;DHT22;14204;51.262;5.488;2023-11-21T02:26:10;10.20;99.90
26537;DHT22;14204;51.262;5.488;2023-11-21T02:28:36;10.20;99.90
26537;DHT22;14204;51.262;5.488;2023-11-21T02:31:02;10.20;99.90
26537;DHT22;14204;51.262;5.488;2023-11-21T02:33:30;10.20;99.90
26537;DHT22;14204;51.262;5.488;2023-11-21T02:35:59;10.30;99.90
26537;DHT22;14204;51.262;5.488;2023-11-21T02:38:25;10.30;99.90
26537;DHT22;14204;51.262;5.488;2023-11-21T02:40:51;10.20;99.90
26537;DHT22;14204;51.262;5.488;2023-11-21T02:43:17;10.30;99.90
26537;DHT22;14204;51.262;5.488;2023-11-21T02:45:43;10.30;99.90
26537;DHT22;14204;51.262;5.488;2023-11-21T02:48:08;10.30;99.90
26537;DHT22;14204;51.262;5.488;2023-11-21T02:50:34;10.30;99.90
26537;DHT22;14204;51.262;5.488;2023-11-21T02:53:01;10.30;99.90
26537;DHT22;14204;51.262;5.488;2023-11-21T02:55:27;10.30;99.90
26537;DHT22;14204;51.262;5.488;2023-11-21T02:57:53;10.30;99.90
26537;DHT22;14204;51.262;5.488;2023-11-21T03:00:21;10.20;99.90
26537;DHT22;14204;51.262;5.488;2023-11-21T03:02:49;10.20;99.90
26537;DHT22;14204;51.262;5.488;2023-11-21T03:05:15;10.20;99.90
26537;DHT22;14204;51.262;5.488;2023-11-21T03:07:41;10.30;99.90
26537;DHT22;14204;51.262;5.488;2023-11-21T03:10:08;10.30;99.90
26537;DHT22;14204;51.262;5.488;2023-11-21T03:12:37;10.20;99.90
26537;DHT22;14204;51.262;5.488;2023-11-21T03:15:07;10.30;99.90
26537;DHT22;14204;51.262;5.488;2023-11-21T03:17:33;10.30;99.90
26537;DHT22;14204;51.262;5.488;2023-11-21T03:20:01;10.30;99.90
26537;DHT22;14204;51.262;5.488;2023-11-21T03:22:29;10.30;99.90
26537;DHT22;14204;51.262;5.488;2023-11-21T03:24:55;10.30;99.90
26537;DHT22;14204;51.262;5.488;2023-11-21T03:27:20;10.30;99.90
26537;DHT22;14204;51.262;5.488;2023-11-21T03:29:47;10.20;99.90
26537;DHT22;14204;51.262;5.488;2023-11-21T03:32:13;10.30;99.90
26537;DHT22;14204;51.262;5.488;2023-11-21T03:34:56;10.30;99.90
26537;DHT22;14204;51.262;5.488;2023-11-21T03:37:23;10.20;99.90
26537;DHT22;14204;51.262;5.488;2023-11-21T03:39:50;10.30;99.90
26537;DHT22;14204;51.262;5.488;2023-11-21T03:42:16;10.30;99.90
26537;DHT22;14204;51.262;5.488;2023-11-21T03:44:42;10.40;99.90
26537;DHT22;14204;51.262;5.488;2023-11-21T03:47:08;10.30;99.90
26537;DHT22;14204;51.262;5.488;2023-11-21T03:49:33;10.30;99.90
26537;DHT22;14204;51.262;5.488;2023-11-21T03:51:59;10.40;99.90
26537;DHT22;14204;51.262;5.488;2023-11-21T03:54:25;10.30;99.90
26537;DHT22;14204;51.262;5.488;2023-11-21T03:56:50;10.30;99.90
26537;DHT22;14204;51.262;5.488;2023-11-21T03:59:17;10.30;99.90
26537;DHT22;14204;51.262;5.488;2023-11-21T04:01:43;10.40;99.90
26537;DHT22;14204;51.262;5.488;2023-11-21T04:04:08;10.40;99.90
26537;DHT22;14204;51.262;5.488;2023-11-21T04:06:34;10.40;99.90
26537;DHT22;14204;51.262;5.488;2023-11-21T04:09:01;10.30;99.90
26537;DHT22;14204;51.262;5.488;2023-11-21T04:11:27;10.30;99.90
26537;DHT22;14204;51.262;5.488;2023-11-21T04:13:55;10.30;99.90
26537;DHT22;14204;51.262;5.488;2023-11-21T04:16:21;10.30;99.90
26537;DHT22;14204;51.262;5.488;2023-11-21T04:18:47;10.40;99.90
26537;DHT22;14204;51.262;5.488;2023-11-21T04:21:13;10.30;99.90
26537;DHT22;14204;51.262;5.488;2023-11-21T04:23:38;10.20;99.90
26537;DHT22;14204;51.262;5.488;2023-11-21T04:26:05;10.20;99.90
26537;DHT22;14204;51.262;5.488;2023-11-21T04:28:31;10.20;99.90
26537;DHT22;14204;51.262;5.488;2023-11-21T04:30:57;10.20;99.90
26537;DHT22;14204;51.262;5.488;2023-11-21T04:33:22;10.20;99.90
26537;DHT22;14204;51.262;5.488;2023-11-21T04:35:48;10.10;99.90
26537;DHT22;14204;51.262;5.488;2023-11-21T04:38:14;10.10;99.90
26537;DHT22;14204;51.262;5.488;2023-11-21T04:40:39;10.10;99.90
26537;DHT22;14204;51.262;5.488;2023-11-21T04:43:05;10.10;99.90
26537;DHT22;14204;51.262;5.488;2023-11-21T04:45:31;10.10;99.90
26537;DHT22;14204;51.262;5.488;2023-11-21T04:47:56;10.10;99.90
26537;DHT22;14204;51.262;5.488;2023-11-21T04:50:22;10.10;99.90
26537;DHT22;14204;51.262;5.488;2023-11-21T04:52:48;10.20;99.90
26537;DHT22;14204;51.262;5.488;2023-11-21T04:55:13;10.10;99.90
26537;DHT22;14204;51.262;5.488;2023-11-21T04:57:41;10.20;99.90
26537;DHT22;14204;51.262;5.488;2023-11-21T05:00:08;10.20;99.90
26537;DHT22;14204;51.262;5.488;2023-11-21T05:02:34;10.20;99.90
26537;DHT22;14204;51.262;5.488;2023-11-21T05:05:00;10.20;99.90
26537;DHT22;14204;51.262;5.488;2023-11-21T05:07:26;10.20;99.90
26537;DHT22;14204;51.262;5.488;2023-11-21T05:09:55;10.20;99.90
26537;DHT22;14204;51.262;5.488;2023-11-21T05:12:24;10.10;99.90
26537;DHT22;14204;51.262;5.488;2023-11-21T05:14:51;10.20;99.90
26537;DHT22;14204;51.262;5.488;2023-11-21T05:17:16;10.30;99.90
26537;DHT22;14204;51.262;5.488;2023-11-21T05:19:42;10.30;99.90
26537;DHT22;14204;51.262;5.488;2023-11-21T05:22:10;10.30;99.90
26537;DHT22;14204;51.262;5.488;2023-11-21T05:24:37;10.20;99.90
26537;DHT22;14204;51.262;5.488;2023-11-21T05:27:05;10.20;99.90
26537;DHT22;14204;51.262;5.488;2023-11-21T05:29:30;10.20;99.90
26537;DHT22;14204;51.262;5.488;2023-11-21T05:31:56;10.20;99.90
26537;DHT22;14204;51.262;5.488;2023-11-21T05:34:22;10.30;99.90
26537;DHT22;14204;51.262;5.488;2023-11-21T05:36:50;10.30;99.90
26537;DHT22;14204;51.262;5.488;2023-11-21T05:39:16;10.30;99.90
26537;DHT22;14204;51.262;5.488;2023-11-21T05:41:45;10.20;99.90
26537;DHT22;14204;51.262;5.488;2023-11-21T05:44:11;10.30;99.90
26537;DHT22;14204;51.262;5.488;2023-11-21T05:46:37;10.20;99.90
26537;DHT22;14204;51.262;5.488;2023-11-21T05:49:03;10.20;99.90
26537;DHT22;14204;51.262;5.488;2023-11-21T05:51:29;10.20;99.90
26537;DHT22;14204;51.262;5.488;2023-11-21T05:53:54;10.20;99.90
26537;DHT22;14204;51.262;5.488;2023-11-21T05:56:20;10.20;99.90
26537;DHT22;14204;51.262;5.488;2023-11-21T05:58:46;10.30;99.90
26537;DHT22;14204;51.262;5.488;2023-11-21T06:01:11;10.20;99.90
26537;DHT22;14204;51.262;5.488;2023-11-21T06:03:38;10.20;99.90
26537;DHT22;14204;51.262;5.488;2023-11-21T06:06:04;10.20;99.90
26537;DHT22;14204;51.262;5.488;2023-11-21T06:08:30;10.20;99.90
26537;DHT22;14204;51.262;5.488;2023-11-21T06:10:56;10.30;99.90
26537;DHT22;14204;51.262;5.488;2023-11-21T06:13:21;10.20;99.90
26537;DHT22;14204;51.262;5.488;2023-11-21T06:15:50;10.20;99.90
26537;DHT22;14204;51.262;5.488;2023-11-21T06:18:16;10.30;99.90
26537;DHT22;14204;51.262;5.488;2023-11-21T06:20:45;10.30;99.90
26537;DHT22;14204;51.262;5.488;2023-11-21T06:23:11;10.30;99.90
26537;DHT22;14204;51.262;5.488;2023-11-21T06:25:36;10.20;99.90
26537;DHT22;14204;51.262;5.488;2023-11-21T06:28:02;10.30;99.90
26537;DHT22;14204;51.262;5.488;2023-11-21T06:30:28;10.30;99.90
26537;DHT22;14204;51.262;5.488;2023-11-21T06:32:54;10.30;99.90
26537;DHT22;14204;51.262;5.488;2023-11-21T06:35:21;10.30;99.90
26537;DHT22;14204;51.262;5.488;2023-11-21T06:37:47;10.30;99.90
26537;DHT22;14204;51.262;5.488;2023-11-21T06:40:13;10.20;99.90
26537;DHT22;14204;51.262;5.488;2023-11-21T06:42:40;10.20;99.90
26537;DHT22;14204;51.262;5.488;2023-11-21T06:45:07;10.30;99.90
26537;DHT22;14204;51.262;5.488;2023-11-21T06:47:33;10.40;99.90
26537;DHT22;14204;51.262;5.488;2023-11-21T06:49:59;10.40;99.90
26537;DHT22;14204;51.262;5.488;2023-11-21T06:52:26;10.30;99.90
26537;DHT22;14204;51.262;5.488;2023-11-21T06:54:51;10.20;99.90
26537;DHT22;14204;51.262;5.488;2023-11-21T06:57:17;10.20;99.90
26537;DHT22;14204;51.262;5.488;2023-11-21T06:59:43;10.20;99.90
26537;DHT22;14204;51.262;5.488;2023-11-21T07:02:09;10.20;99.90
26537;DHT22;14204;51.262;5.488;2023-11-21T07:04:37;10.20;99.90
26537;DHT22;14204;51.262;5.488;2023-11-21T07:07:04;10.20;99.90
26537;DHT22;14204;51.262;5.488;2023-11-21T07:09:32;10.20;99.90
26537;DHT22;14204;51.262;5.488;2023-11-21T07:11:58;10.30;99.90
26537;DHT22;14204;51.262;5.488;2023-11-21T07:14:23;10.40;99.90
26537;DHT22;14204;51.262;5.488;2023-11-21T07:16:49;10.40;99.90
26537;DHT22;14204;51.262;5.488;2023-11-21T07:19:15;10.40;99.90
26537;DHT22;14204;51.262;5.488;2023-11-21T07:21:42;10.50;99.90
26537;DHT22;14204;51.262;5.488;2023-11-21T07:24:08;10.40;99.90
26537;DHT22;14204;51.262;5.488;2023-11-21T07:26:35;10.30;99.90
26537;DHT22;14204;51.262;5.488;2023-11-21T07:29:02;10.40;99.90
26537;DHT22;14204;51.262;5.488;2023-11-21T07:31:29;10.40;99.90
26537;DHT22;14204;51.262;5.488;2023-11-21T07:33:55;10.40;99.90
26537;DHT22;14204;51.262;5.488;2023-11-21T07:36:24;10.40;99.90
26537;DHT22;14204;51.262;5.488;2023-11-21T07:38:50;10.40;99.90
26537;DHT22;14204;51.262;5.488;2023-11-21T07:41:16;10.40;99.90
26537;DHT22;14204;51.262;5.488;2023-11-21T07:43:43;10.40;99.90
26537;DHT22;14204;51.262;5.488;2023-11-21T07:46:10;10.40;99.90
26537;DHT22;14204;51.262;5.488;2023-11-21T07:48:35;10.50;99.90
26537;DHT22;14204;51.262;5.488;2023-11-21T07:51:02;10.50;99.90
26537;DHT22;14204;51.262;5.488;2023-11-21T07:53:31;10.50;99.90
26537;DHT22;14204;51.262;5.488;2023-11-21T07:55:57;10.50;99.90
26537;DHT22;14204;51.262;5.488;2023-11-21T07:58:23;10.50;99.90
26537;DHT22;14204;51.262;5.488;2023-11-21T08:00:50;10.50;99.90
26537;DHT22;14204;51.262;5.488;2023-11-21T08:03:16;10.60;99.90
26537;DHT22;14204;51.262;5.488;2023-11-21T08:05:42;10.60;99.90
26537;DHT22;14204;51.262;5.488;2023-11-21T08:08:08;10.60;99.90
26537;DHT22;14204;51.262;5.488;2023-11-21T08:10:34;10.60;99.90
26537;DHT22;14204;51.262;5.488;2023-11-21T08:13:02;10.60;99.90
26537;DHT22;14204;51.262;5.488;2023-11-21T08:15:28;10.60;99.90
26537;DHT22;14204;51.262;5.488;2023-11-21T08:17:53;10.70;99.90
26537;DHT22;14204;51.262;5.488;2023-11-21T08:20:19;10.70;99.90
26537;DHT22;14204;51.262;5.488;2023-11-21T08:22:45;10.70;99.90
26537;DHT22;14204;51.262;5.488;2023-11-21T08:25:13;10.70;99.90
26537;DHT22;14204;51.262;5.488;2023-11-21T08:27:38;10.80;99.90
26537;DHT22;14204;51.262;5.488;2023-11-21T08:30:04;10.70;99.90
26537;DHT22;14204;51.262;5.488;2023-11-21T08:32:30;10.80;99.90
26537;DHT22;14204;51.262;5.488;2023-11-21T08:35:01;10.80;99.90
26537;DHT22;14204;51.262;5.488;2023-11-21T08:37:27;10.80;99.90
26537;DHT22;14204;51.262;5.488;2023-11-21T08:39:58;10.70;99.90
26537;DHT22;14204;51.262;5.488;2023-11-21T08:42:24;10.80;99.90
26537;DHT22;14204;51.262;5.488;2023-11-21T08:44:50;10.90;99.90
26537;DHT22;14204;51.262;5.488;2023-11-21T08:47:16;10.90;99.90
26537;DHT22;14204;51.262;5.488;2023-11-21T08:49:42;10.90;99.90
26537;DHT22;14204;51.262;5.488;2023-11-21T08:52:08;11.00;99.90
26537;DHT22;14204;51.262;5.488;2023-11-21T08:54:34;10.90;99.90
26537;DHT22;14204;51.262;5.488;2023-11-21T08:56:59;10.90;99.90
26537;DHT22;14204;51.262;5.488;2023-11-21T08:59:26;10.90;99.90
26537;DHT22;14204;51.262;5.488;2023-11-21T09:01:52;10.90;99.90
26537;DHT22;14204;51.262;5.488;2023-11-21T09:04:17;11.00;99.90
26537;DHT22;14204;51.262;5.488;2023-11-21T09:06:43;11.10;99.90
26537;DHT22;14204;51.262;5.488;2023-11-21T09:09:09;11.10;99.90
26537;DHT22;14204;51.262;5.488;2023-11-21T09:11:36;11.10;99.90
26537;DHT22;14204;51.262;5.488;2023-11-21T09:14:03;11.10;99.90
26537;DHT22;14204;51.262;5.488;2023-11-21T09:16:29;11.10;99.90
26537;DHT22;14204;51.262;5.488;2023-11-21T09:18:54;11.10;99.90
26537;DHT22;14204;51.262;5.488;2023-11-21T09:21:20;11.10;99.90
26537;DHT22;14204;51.262;5.488;2023-11-21T09:23:47;11.10;99.90
26537;DHT22;14204;51.262;5.488;2023-11-21T09:26:13;11.10;99.90
26537;DHT22;14204;51.262;5.488;2023-11-21T09:28:43;11.10;99.90
26537;DHT22;14204;51.262;5.488;2023-11-21T09:31:12;11.10;99.90
26537;DHT22;14204;51.262;5.488;2023-11-21T09:33:37;11.20;99.90
26537;DHT22;14204;51.262;5.488;2023-11-21T09:36:04;11.20;99.90
26537;DHT22;14204;51.262;5.488;2023-11-21T09:38:31;11.30;99.90
26537;DHT22;14204;51.262;5.488;2023-11-21T09:40:57;11.30;99.90
26537;DHT22;14204;51.262;5.488;2023-11-21T09:43:25;11.30;99.90
26537;DHT22;14204;51.262;5.488;2023-11-21T09:46:05;11.40;99.90
26537;DHT22;14204;51.262;5.488;2023-11-21T09:48:32;11.30;99.90
26537;DHT22;14204;51.262;5.488;2023-11-21T09:51:00;11.40;99.90
26537;DHT22;14204;51.262;5.488;2023-11-21T09:53:28;11.40;99.90
26537;DHT22;14204;51.262;5.488;2023-11-21T09:55:55;11.50;99.90
26537;DHT22;14204;51.262;5.488;2023-11-21T09:58:22;11.50;99.90
26537;DHT22;14204;51.262;5.488;2023-11-21T10:00:50;11.60;99.90
26537;DHT22;14204;51.262;5.488;2023-11-21T10:03:18;11.50;99.90
26537;DHT22;14204;51.262;5.488;2023-11-21T10:05:44;11.50;99.90
26537;DHT22;14204;51.262;5.488;2023-11-21T10:08:13;11.50;99.90
26537;DHT22;14204;51.262;5.488;2023-11-21T10:10:44;11.60;99.90
26537;DHT22;14204;51.262;5.488;2023-11-21T10:13:12;11.60;99.90
26537;DHT22;14204;51.262;5.488;2023-11-21T10:15:42;11.50;99.90
26537;DHT22;14204;51.262;5.488;2023-11-21T10:18:14;11.50;99.90
26537;DHT22;14204;51.262;5.488;2023-11-21T10:20:41;11.50;99.90
26537;DHT22;14204;51.262;5.488;2023-11-21T10:23:07;11.60;99.90
26537;DHT22;14204;51.262;5.488;2023-11-21T10:25:37;11.50;99.90
26537;DHT22;14204;51.262;5.488;2023-11-21T10:28:03;11.60;99.90
26537;DHT22;14204;51.262;5.488;2023-11-21T10:30:34;11.70;99.90
26537;DHT22;14204;51.262;5.488;2023-11-21T10:33:02;11.70;99.90
26537;DHT22;14204;51.262;5.488;2023-11-21T10:35:48;11.70;99.90
26537;DHT22;14204;51.262;5.488;2023-11-21T10:38:18;11.70;99.90
26537;DHT22;14204;51.262;5.488;2023-11-21T10:40:46;11.70;99.90
26537;DHT22;14204;51.262;5.488;2023-11-21T10:43:13;11.70;99.90
26537;DHT22;14204;51.262;5.488;2023-11-21T10:45:41;11.70;99.90
26537;DHT22;14204;51.262;5.488;2023-11-21T10:48:14;11.70;99.90
26537;DHT22;14204;51.262;5.488;2023-11-21T10:50:45;11.80;99.90
26537;DHT22;14204;51.262;5.488;2023-11-21T10:53:11;11.80;99.90
26537;DHT22;14204;51.262;5.488;2023-11-21T10:55:39;11.80;99.90
26537;DHT22;14204;51.262;5.488;2023-11-21T10:58:05;11.80;99.90
26537;DHT22;14204;51.262;5.488;2023-11-21T11:00:34;11.90;99.90
26537;DHT22;14204;51.262;5.488;2023-11-21T11:03:00;11.90;99.90
26537;DHT22;14204;51.262;5.488;2023-11-21T11:05:28;11.90;99.90
26537;DHT22;14204;51.262;5.488;2023-11-21T11:08:06;11.90;99.90
26537;DHT22;14204;51.262;5.488;2023-11-21T11:10:33;11.90;99.90
26537;DHT22;14204;51.262;5.488;2023-11-21T11:12:59;11.90;99.90
26537;DHT22;14204;51.262;5.488;2023-11-21T11:15:26;11.90;99.90
26537;DHT22;14204;51.262;5.488;2023-11-21T11:17:53;12.00;99.90
26537;DHT22;14204;51.262;5.488;2023-11-21T11:20:32;12.00;99.90
26537;DHT22;14204;51.262;5.488;2023-11-21T11:26:10;11.90;99.90
26537;DHT22;14204;51.262;5.488;2023-11-21T11:34:30;11.90;99.90
26537;DHT22;14204;51.262;5.488;2023-11-21T11:37:08;11.90;99.90
26537;DHT22;14204;51.262;5.488;2023-11-21T11:39:41;11.90;99.90
26537;DHT22;14204;51.262;5.488;2023-11-21T11:42:15;11.90;99.90
26537;DHT22;14204;51.262;5.488;2023-11-21T11:47:24;12.00;99.90
26537;DHT22;14204;51.262;5.488;2023-11-21T11:49:59;12.00;99.90
26537;DHT22;14204;51.262;5.488;2023-11-21T11:55:02;12.00;99.90
26537;DHT22;14204;51.262;5.488;2023-11-21T11:57:31;12.10;99.90
26537;DHT22;14204;51.262;5.488;2023-11-21T12:00:21;12.00;99.90
26537;DHT22;14204;51.262;5.488;2023-11-21T12:03:02;12.10;99.90
26537;DHT22;14204;51.262;5.488;2023-11-21T12:05:32;12.10;99.90
26537;DHT22;14204;51.262;5.488;2023-11-21T12:08:02;12.10;99.90
26537;DHT22;14204;51.262;5.488;2023-11-21T12:10:36;12.10;99.90
26537;DHT22;14204;51.262;5.488;2023-11-21T12:15:31;12.10;99.90
26537;DHT22;14204;51.262;5.488;2023-11-21T12:17:57;12.10;99.90
26537;DHT22;14204;51.262;5.488;2023-11-21T12:20:27;12.10;99.90
26537;DHT22;14204;51.262;5.488;2023-11-21T12:22:57;12.10;99.90
26537;DHT22;14204;51.262;5.488;2023-11-21T12:25:28;12.20;99.90
26537;DHT22;14204;51.262;5.488;2023-11-21T12:27:58;12.20;99.90
26537;DHT22;14204;51.262;5.488;2023-11-21T12:30:27;12.20;99.90
26537;DHT22;14204;51.262;5.488;2023-11-21T12:32:57;12.30;99.90
26537;DHT22;14204;51.262;5.488;2023-11-21T12:35:31;12.30;99.90
26537;DHT22;14204;51.262;5.488;2023-11-21T12:38:00;12.30;99.90
26537;DHT22;14204;51.262;5.488;2023-11-21T12:40:28;12.30;99.90
26537;DHT22;14204;51.262;5.488;2023-11-21T12:42:56;12.30;99.90
26537;DHT22;14204;51.262;5.488;2023-11-21T12:45:27;12.30;99.90
26537;DHT22;14204;51.262;5.488;2023-11-21T12:48:00;12.30;99.90
26537;DHT22;14204;51.262;5.488;2023-11-21T12:50:30;12.40;99.90
26537;DHT22;14204;51.262;5.488;2023-11-21T12:53:03;12.30;99.90
26537;DHT22;14204;51.262;5.488;2023-11-21T12:55:34;12.30;99.90
26537;DHT22;14204;51.262;5.488;2023-11-21T12:58:03;12.30;99.90
26537;DHT22;14204;51.262;5.488;2023-11-21T13:00:37;12.30;99.90
26537;DHT22;14204;51.262;5.488;2023-11-21T13:03:04;12.30;99.90
26537;DHT22;14204;51.262;5.488;2023-11-21T13:05:37;12.40;99.90
26537;DHT22;14204;51.262;5.488;2023-11-21T13:08:16;12.40;99.90
26537;DHT22;14204;51.262;5.488;2023-11-21T13:10:46;12.40;99.90
26537;DHT22;14204;51.262;5.488;2023-11-21T13:13:14;12.40;99.90
26537;DHT22;14204;51.262;5.488;2023-11-21T13:15:54;12.50;99.90
26537;DHT22;14204;51.262;5.488;2023-11-21T13:18:26;12.50;99.90
26537;DHT22;14204;51.262;5.488;2023-11-21T13:20:55;12.50;99.90
26537;DHT22;14204;51.262;5.488;2023-11-21T13:23:22;12.60;99.90
26537;DHT22;14204;51.262;5.488;2023-11-21T13:25:49;12.50;99.90
26537;DHT22;14204;51.262;5.488;2023-11-21T13:28:15;12.50;99.90
26537;DHT22;14204;51.262;5.488;2023-11-21T13:30:43;12.50;99.90
26537;DHT22;14204;51.262;5.488;2023-11-21T13:33:10;12.60;99.90
26537;DHT22;14204;51.262;5.488;2023-11-21T13:35:39;12.60;99.90
26537;DHT22;14204;51.262;5.488;2023-11-21T13:38:15;12.60;99.90
26537;DHT22;14204;51.262;5.488;2023-11-21T13:40:46;12.60;99.90
26537;DHT22;14204;51.262;5.488;2023-11-21T13:43:15;12.60;99.90
26537;DHT22;14204;51.262;5.488;2023-11-21T13:45:43;12.60;99.90
26537;DHT22;14204;51.262;5.488;2023-11-21T13:48:10;12.60;99.90
26537;DHT22;14204;51.262;5.488;2023-11-21T13:50:38;12.40;99.90
26537;DHT22;14204;51.262;5.488;2023-11-21T13:53:04;12.40;99.90
26537;DHT22;14204;51.262;5.488;2023-11-21T13:55:45;12.30;99.90
26537;DHT22;14204;51.262;5.488;2023-11-21T13:58:11;12.40;99.90
26537;DHT22;14204;51.262;5.488;2023-11-21T14:00:43;12.40;99.90
26537;DHT22;14204;51.262;5.488;2023-11-21T14:03:17;12.40;99.90
26537;DHT22;14204;51.262;5.488;2023-11-21T14:05:47;12.40;99.90
26537;DHT22;14204;51.262;5.488;2023-11-21T14:08:20;12.40;99.90
26537;DHT22;14204;51.262;5.488;2023-11-21T14:10:47;12.30;99.90
26537;DHT22;14204;51.262;5.488;2023-11-21T14:13:21;12.30;99.90
26537;DHT22;14204;51.262;5.488;2023-11-21T14:15:49;12.30;99.90
26537;DHT22;14204;51.262;5.488;2023-11-21T14:18:17;12.30;99.90
26537;DHT22;14204;51.262;5.488;2023-11-21T14:20:51;12.40;99.90
26537;DHT22;14204;51.262;5.488;2023-11-21T14:23:17;12.30;99.90
26537;DHT22;14204;51.262;5.488;2023-11-21T14:25:43;12.30;99.90
26537;DHT22;14204;51.262;5.488;2023-11-21T14:28:09;12.30;99.90
26537;DHT22;14204;51.262;5.488;2023-11-21T14:30:37;12.30;99.90
26537;DHT22;14204;51.262;5.488;2023-11-21T14:33:05;12.30;99.90
26537;DHT22;14204;51.262;5.488;2023-11-21T14:35:31;12.30;99.90
26537;DHT22;14204;51.262;5.488;2023-11-21T14:37:58;12.20;99.90
26537;DHT22;14204;51.262;5.488;2023-11-21T14:40:26;12.20;99.90
26537;DHT22;14204;51.262;5.488;2023-11-21T14:42:54;12.20;99.90
26537;DHT22;14204;51.262;5.488;2023-11-21T14:45:22;12.20;99.90
26537;DHT22;14204;51.262;5.488;2023-11-21T14:47:51;12.30;99.90
26537;DHT22;14204;51.262;5.488;2023-11-21T14:50:43;12.20;99.90
26537;DHT22;14204;51.262;5.488;2023-11-21T14:53:29;12.20;99.90
26537;DHT22;14204;51.262;5.488;2023-11-21T14:56:21;12.20;99.90
26537;DHT22;14204;51.262;5.488;2023-11-21T14:58:57;12.30;99.90
26537;DHT22;14204;51.262;5.488;2023-11-21T15:01:24;12.30;99.90
26537;DHT22;14204;51.262;5.488;2023-11-21T15:04:11;12.30;99.90
26537;DHT22;14204;51.262;5.488;2023-11-21T15:06:55;12.30;99.90
26537;DHT22;14204;51.262;5.488;2023-11-21T15:09:23;12.10;99.90
26537;DHT22;14204;51.262;5.488;2023-11-21T15:12:02;12.10;99.90
26537;DHT22;14204;51.262;5.488;2023-11-21T15:14:39;12.10;99.90
26537;DHT22;14204;51.262;5.488;2023-11-21T15:17:04;12.10;99.90
26537;DHT22;14204;51.262;5.488;2023-11-21T15:19:31;12.10;99.90
26537;DHT22;14204;51.262;5.488;2023-11-21T15:21:57;12.20;99.90
26537;DHT22;14204;51.262;5.488;2023-11-21T15:24:23;12.10;99.90
26537;DHT22;14204;51.262;5.488;2023-11-21T15:26:50;12.20;99.90
26537;DHT22;14204;51.262;5.488;2023-11-21T15:29:16;12.10;99.90
26537;DHT22;14204;51.262;5.488;2023-11-21T15:31:42;12.10;99.90
26537;DHT22;14204;51.262;5.488;2023-11-21T15:34:16;12.20;99.90
26537;DHT22;14204;51.262;5.488;2023-11-21T15:36:42;12.20;99.90
26537;DHT22;14204;51.262;5.488;2023-11-21T15:39:09;12.20;99.90
26537;DHT22;14204;51.262;5.488;2023-11-21T15:41:39;12.20;99.90
26537;DHT22;14204;51.262;5.488;2023-11-21T15:44:07;12.20;99.90
26537;DHT22;14204;51.262;5.488;2023-11-21T15:46:36;12.20;99.90
26537;DHT22;14204;51.262;5.488;2023-11-21T15:49:05;12.20;99.90
26537;DHT22;14204;51.262;5.488;2023-11-21T15:51:39;12.30;99.90